Vision of The Seas — C6SE8 — position and weather

sailwx.info

Track history (hours):
 
Tides and Currents Weather Stations Pressure Air Temp Water Temp Dewpoint Dewpoint Depression Visibility Wind Speed Wind Dir Waves Ship Positions

Vision of The Seas

Operator: Royal Caribbean Cruises Ltd

Last reported at 2017-Jun-26 11:58 UTC. Time now 2017-Jun-26 17:17 UTC.
Position N 55°37' E 006°22'.

Type: Passenger vessel. MMSI: 311321000.

Date/timePositionNaut miles runAvg speedWind from/ knotsBaromVisibWave heightAir tempDewpointWater temp
2017-Jun-26 11:58N 55°37' E 006°22'919.8
2017-Jun-26 11:30N 55°45' E 006°30'1019.7
2017-Jun-26 10:59N 55°54' E 006°40'919.8
2017-Jun-26 10:30N 56°02' E 006°49'1019.5
2017-Jun-26 09:59N 56°10' E 006°59'1019.5
2017-Jun-26 09:29N 56°18' E 007°09'1019.6
2017-Jun-26 08:59N 56°27' E 007°17'1019.7
2017-Jun-26 08:29N 56°36' E 007°25'919.4
2017-Jun-26 08:01N 56°44' E 007°32'1019.2
2017-Jun-26 07:30N 56°52' E 007°42'1019.5
2017-Jun-26 07:00N 57°01' E 007°50'1019.6
2017-Jun-26 06:30N 57°09' E 007°59'1019.3
2017-Jun-26 06:00N 57°18' E 008°08'917.7
2017-Jun-26 05:30N 57°23' E 008°21'917.6
2017-Jun-26 05:00N 57°27' E 008°35'917.4
2017-Jun-26 04:29N 57°32' E 008°50'917.1
2017-Jun-26 03:59N 57°36' E 009°03'917.2
2017-Jun-26 03:29N 57°41' E 009°17'917.1
2017-Jun-26 02:59N 57°45' E 009°31'917.2
2017-Jun-26 02:29N 57°48' E 009°46'916.8
2017-Jun-26 01:59N 57°50' E 010°02'816.6
2017-Jun-26 01:30N 57°51' E 010°16'815.7
2017-Jun-26 01:00N 57°51' E 010°31'713.6
2017-Jun-26 00:30N 57°50' E 010°44'713.9
2017-Jun-25 23:59N 57°47' E 010°56'816.0
2017-Jun-25 23:29N 57°41' E 011°06'816.8
2017-Jun-25 23:00N 57°35' E 011°16'816.9
2017-Jun-25 22:31N 57°29' E 011°27'917.4
2017-Jun-25 22:01N 57°21' E 011°32'917.1
2017-Jun-25 21:30N 57°12' E 011°37'916.9
2017-Jun-25 20:59N 57°04' E 011°43'4216.5
2017-Jun-25 18:26N 56°24' E 012°03'716.4
2017-Jun-25 18:00N 56°17' E 012°08'816.5
2017-Jun-25 17:31N 56°13' E 012°20'816.0
2017-Jun-25 17:01N 56°08' E 012°32'815.1
2017-Jun-25 16:31N 56°02' E 012°41'816.1
2017-Jun-25 16:01N 55°54' E 012°45'815.8
2017-Jun-25 15:31N 55°46' E 012°42'611.0
2017-Jun-25 15:00N 55°42' E 012°36'0 0.0
2017-Jun-25 14:30N 55°42' E 012°36'0 0.0
2017-Jun-25 13:30N 55°42' E 012°36'0 0.0
2017-Jun-25 13:00N 55°42' E 012°36'0 0.0
2017-Jun-25 12:30N 55°42' E 012°36'0 0.0
2017-Jun-25 12:00N 55°42' E 012°36'0 0.0
2017-Jun-25 11:30N 55°42' E 012°36'0 0.0
2017-Jun-25 11:00N 55°42' E 012°36'0 0.0
2017-Jun-25 10:30N 55°42' E 012°36'0 0.0
2017-Jun-25 10:00N 55°42' E 012°36'0 0.0
2017-Jun-25 09:27N 55°42' E 012°36'0 0.0
2017-Jun-25 09:00N 55°42' E 012°36'0 0.0
2017-Jun-25 08:30N 55°42' E 012°36'0 0.0
2017-Jun-25 08:00N 55°42' E 012°36'0 0.0
2017-Jun-25 07:30N 55°42' E 012°36'0 0.0
2017-Jun-25 07:00N 55°42' E 012°36'0 0.0
2017-Jun-25 06:30N 55°42' E 012°36'0 0.0
2017-Jun-25 06:00N 55°42' E 012°36'0 0.0
2017-Jun-25 05:30N 55°42' E 012°36'0 0.2
2017-Jun-25 05:00N 55°42' E 012°36'2 3.3
2017-Jun-25 04:30N 55°43' E 012°38'5 9.1
2017-Jun-25 04:00N 55°47' E 012°43'4 8.9
2017-Jun-25 03:30N 55°51' E 012°41'4 8.7
2017-Jun-25 03:00N 55°56' E 012°39'4 8.3
2017-Jun-25 02:30N 55°60' E 012°40'510.4
2017-Jun-25 02:00N 56°04' E 012°37'510.9
2017-Jun-25 01:30N 56°08' E 012°29'510.7
2017-Jun-25 01:00N 56°11' E 012°21'510.2
2017-Jun-25 00:30N 56°14' E 012°13'5 9.8
2017-Jun-25 00:00N 56°16' E 012°06'63 8.8
2017-Jun-24 16:50N 56°10' E 010°14'1 0.2
2017-Jun-24 13:58N 56°09' E 010°13'0 0.0
2017-Jun-24 13:17N 56°09' E 010°13'0 0.0
2017-Jun-24 12:58N 56°09' E 010°13'0 0.0
2017-Jun-24 12:28N 56°09' E 010°13'0 0.0
2017-Jun-24 11:53N 56°09' E 010°13'0 0.0
2017-Jun-24 10:47N 56°09' E 010°13'0 0.0
2017-Jun-24 10:04N 56°09' E 010°13'0 0.0
2017-Jun-24 09:46N 56°09' E 010°13'0 0.0
2017-Jun-24 09:30N 56°09' E 010°13'0 0.0
2017-Jun-24 08:54N 56°09' E 010°13'0 0.0
2017-Jun-24 08:29N 56°09' E 010°13'0 0.0
2017-Jun-24 08:00N 56°09' E 010°13'0 0.0
2017-Jun-24 07:30N 56°09' E 010°13'0 0.0
2017-Jun-24 07:00N 56°09' E 010°13'1 2.6
2017-Jun-24 06:30N 56°09' E 010°15'816.0
2017-Jun-24 06:00N 56°06' E 010°28'5714.2
2017-Jun-24 01:57N 55°13' E 011°06'817.6
2017-Jun-24 01:30N 55°05' E 011°03'816.9
2017-Jun-24 01:00N 54°57' E 010°58'816.1
2017-Jun-24 00:30N 54°50' E 010°53'815.5
2017-Jun-24 00:00N 54°42' E 010°56'816.5
2017-Jun-23 23:31N 54°38' E 011°08'816.9
2017-Jun-23 23:00N 54°34' E 011°20'917.1
2017-Jun-23 22:31N 54°30' E 011°34'1716.9
2017-Jun-23 21:32N 54°26' E 012°01'017.2
2017-Jun-23 21:30N 54°26' E 012°02'714.9
2017-Jun-23 21:00N 54°31' E 012°12'816.9
2017-Jun-23 20:31N 54°38' E 012°18'3117.0
2017-Jun-23 18:41N 54°53' E 013°06'817.0
2017-Jun-23 18:11N 54°55' E 013°20'316.8
2017-Jun-23 18:00N 54°56' E 013°25'816.8
2017-Jun-23 17:30N 54°58' E 013°39'816.7
2017-Jun-23 17:00N 55°00' E 013°54'817.1
2017-Jun-23 16:30N 55°04' E 014°06'917.8
2017-Jun-23 16:00N 55°11' E 014°16'918.1
2017-Jun-23 15:30N 55°18' E 014°26'918.0
2017-Jun-23 15:00N 55°25' E 014°36'1817.9
2017-Jun-23 14:00N 55°34' E 015°03'918.1
2017-Jun-23 13:30N 55°38' E 015°17'918.0
2017-Jun-23 13:00N 55°42' E 015°32'918.1
2017-Jun-23 12:30N 55°46' E 015°46'918.2
2017-Jun-23 12:00N 55°51' E 015°59'918.2
2017-Jun-23 11:31N 55°56' E 016°13'918.3
2017-Jun-23 11:00N 56°01' E 016°26'918.3
2017-Jun-23 10:30N 56°07' E 016°40'918.2
2017-Jun-23 10:01N 56°12' E 016°53'917.7
2017-Jun-23 09:30N 56°19' E 017°03'918.2
2017-Jun-23 09:00N 56°27' E 017°10'918.2
2017-Jun-23 08:30N 56°36' E 017°15'917.8
2017-Jun-23 08:00N 56°45' E 017°20'817.6
2017-Jun-23 07:31N 56°53' E 017°22'917.4
2017-Jun-23 07:00N 57°01' E 017°29'917.8
2017-Jun-23 06:30N 57°10' E 017°33'917.9
2017-Jun-23 06:00N 57°18' E 017°36'917.8
2017-Jun-23 05:30N 57°27' E 017°40'918.1
2017-Jun-23 05:00N 57°35' E 017°47'1518.3
2017-Jun-23 04:10N 57°49' E 018°01'418.5
2017-Jun-23 03:58N 57°52' E 018°04'818.5
2017-Jun-23 03:30N 57°60' E 018°11'918.2
2017-Jun-23 03:00N 58°08' E 018°18'2417.9
2017-Jun-23 01:41N 58°29' E 018°39'318.2
2017-Jun-23 01:31N 58°31' E 018°43'1018.1
2017-Jun-23 00:57N 58°39' E 018°56'917.9
2017-Jun-23 00:28N 58°45' E 019°08'818.1
2017-Jun-23 00:00N 58°50' E 019°20'918.1
2017-Jun-22 23:30N 58°57' E 019°32'917.9
2017-Jun-22 23:00N 59°04' E 019°42'917.8
2017-Jun-22 22:30N 59°11' E 019°54'917.3
2017-Jun-22 22:00N 59°18' E 020°02'918.0
2017-Jun-22 21:31N 59°27' E 020°04'917.2
2017-Jun-22 21:00N 59°36' E 020°00'918.4
2017-Jun-22 20:30N 59°42' E 019°48'917.7
2017-Jun-22 20:00N 59°47' E 019°33'816.1
2017-Jun-22 19:30N 59°45' E 019°18'1414.2
2017-Jun-22 18:30N 59°39' E 018°53'612.4
2017-Jun-22 18:00N 59°35' E 018°43'510.8
2017-Jun-22 17:30N 59°32' E 018°34'510.0
2017-Jun-22 17:00N 59°29' E 018°27'5 9.5
2017-Jun-22 16:30N 59°24' E 018°26'3 5.6
2017-Jun-22 16:00N 59°22' E 018°23'510.0
2017-Jun-22 15:30N 59°21' E 018°13'4 8.7
2017-Jun-22 15:00N 59°19' E 018°05'0 0.5
2017-Jun-22 14:28N 59°19' E 018°05'0 0.0
2017-Jun-22 13:28N 59°19' E 018°05'0 0.0
2017-Jun-22 12:58N 59°19' E 018°05'0 0.0
2017-Jun-22 12:28N 59°19' E 018°05'0 0.0
2017-Jun-22 11:58N 59°19' E 018°05'0 0.0
2017-Jun-22 11:28N 59°19' E 018°05'0 0.0
2017-Jun-22 10:58N 59°19' E 018°05'0 0.0
2017-Jun-22 10:28N 59°19' E 018°05'0 0.0
2017-Jun-22 09:58N 59°19' E 018°05'0 0.0
2017-Jun-22 09:28N 59°19' E 018°05'0 0.0
2017-Jun-22 08:58N 59°19' E 018°05'0 0.0
2017-Jun-22 08:25N 59°19' E 018°05'0 0.0
2017-Jun-22 07:58N 59°19' E 018°05'0 0.0
2017-Jun-22 07:28N 59°19' E 018°05'0 0.0
2017-Jun-22 06:58N 59°19' E 018°05'0 0.0
2017-Jun-22 06:28N 59°19' E 018°05'0 0.0
2017-Jun-22 05:58N 59°19' E 018°05'0 0.1
2017-Jun-22 05:30N 59°19' E 018°05'3 6.2
2017-Jun-22 05:00N 59°20' E 018°11'4 8.8
2017-Jun-22 04:30N 59°23' E 018°17'5 9.2
2017-Jun-22 04:01N 59°21' E 018°26'5 9.3
2017-Jun-22 03:31N 59°26' E 018°23'611.1
2017-Jun-22 03:00N 59°31' E 018°29'5 9.7
2017-Jun-22 02:31N 59°33' E 018°37'611.5
2017-Jun-22 02:01N 59°36' E 018°47'611.0
2017-Jun-22 01:30N 59°40' E 018°56'815.2
2017-Jun-22 01:01N 59°44' E 019°08'816.6
2017-Jun-22 00:31N 59°47' E 019°24'815.6
2017-Jun-22 00:00N 59°48' E 019°39'816.7
2017-Jun-21 23:31N 59°44' E 019°52'917.2
2017-Jun-21 23:01N 59°37' E 020°04'816.7
2017-Jun-21 22:31N 59°30' E 020°11'917.5
2017-Jun-21 22:01N 59°25' E 020°25'1020.2
2017-Jun-21 21:31N 59°24' E 020°45'1020.5
2017-Jun-21 21:00N 59°25' E 021°05'1020.0
2017-Jun-21 20:30N 59°25' E 021°25'1020.7
2017-Jun-21 20:01N 59°25' E 021°45'1020.7
2017-Jun-21 19:31N 59°26' E 022°05'1020.6
2017-Jun-21 19:01N 59°28' E 022°25'1020.7
2017-Jun-21 18:30N 59°31' E 022°45'1020.5
2017-Jun-21 18:01N 59°33' E 023°05'1020.2
2017-Jun-21 17:31N 59°32' E 023°25'1020.4
2017-Jun-21 17:01N 59°32' E 023°45'1020.1
2017-Jun-21 16:31N 59°31' E 024°04'1020.1
2017-Jun-21 16:00N 59°30' E 024°24'917.4
2017-Jun-21 15:31N 59°32' E 024°41'510.6
2017-Jun-21 15:01N 59°27' E 024°46'0 0.3
2017-Jun-21 13:59N 59°27' E 024°46'0 0.0
2017-Jun-21 13:29N 59°27' E 024°46'0 0.0
2017-Jun-21 12:59N 59°27' E 024°46'0 0.0
2017-Jun-21 12:29N 59°27' E 024°46'0 0.0
2017-Jun-21 11:59N 59°27' E 024°46'0 0.0
2017-Jun-21 11:29N 59°27' E 024°46'0 0.0
2017-Jun-21 10:56N 59°27' E 024°46'0 0.0
2017-Jun-21 10:29N 59°27' E 024°46'0 0.0
2017-Jun-21 09:59N 59°27' E 024°46'0 0.0
2017-Jun-21 09:29N 59°27' E 024°46'0 0.0
2017-Jun-21 08:59N 59°27' E 024°46'0 0.0
2017-Jun-21 08:29N 59°27' E 024°46'0 0.0
2017-Jun-21 07:59N 59°27' E 024°46'0 0.0
2017-Jun-21 07:29N 59°27' E 024°46'0 0.0
2017-Jun-21 06:59N 59°27' E 024°46'0 0.0
2017-Jun-21 06:29N 59°27' E 024°46'0 0.0
2017-Jun-21 05:59N 59°27' E 024°46'0 0.0
2017-Jun-21 05:29N 59°27' E 024°46'0 0.1
2017-Jun-21 04:59N 59°27' E 024°46'0 0.1
2017-Jun-21 04:31N 59°27' E 024°46'815.4
2017-Jun-21 04:01N 59°34' E 024°41'918.1
2017-Jun-21 03:30N 59°43' E 024°40'1020.7
2017-Jun-21 03:00N 59°50' E 024°56'1121.2
2017-Jun-21 02:31N 59°52' E 025°16'1121.3
2017-Jun-21 02:01N 59°53' E 025°38'1121.4
2017-Jun-21 01:31N 59°56' E 025°58'1121.5
2017-Jun-21 01:01N 59°59' E 026°19'1121.4
2017-Jun-21 00:31N 60°01' E 026°40'1121.8
2017-Jun-21 00:00N 59°60' E 027°01'1121.7
2017-Jun-20 23:31N 60°05' E 027°20'1121.9
2017-Jun-20 23:01N 60°11' E 027°39'1121.1
2017-Jun-20 22:30N 60°10' E 028°00'1121.4
2017-Jun-20 22:01N 60°06' E 028°20'1121.1
2017-Jun-20 21:31N 60°03' E 028°40'1121.7
2017-Jun-20 21:01N 60°03' E 029°02'1020.6
2017-Jun-20 20:31N 60°02' E 029°22'713.2
2017-Jun-20 19:57N 60°00' E 029°37'510.9
2017-Jun-20 19:30N 59°59' E 029°46'611.5
2017-Jun-20 19:01N 59°56' E 029°56'5 9.8
2017-Jun-20 18:31N 59°57' E 030°06'3 5.6
2017-Jun-20 18:01N 59°57' E 030°11'0 0.3
2017-Jun-20 17:31N 59°57' E 030°11'0 0.0
2017-Jun-20 17:01N 59°57' E 030°11'0 0.0
2017-Jun-20 16:31N 59°57' E 030°11'0 0.0
2017-Jun-20 16:00N 59°57' E 030°11'0 0.0
2017-Jun-20 15:30N 59°57' E 030°11'0 0.0
2017-Jun-20 15:00N 59°57' E 030°11'0 0.0
2017-Jun-20 14:00N 59°57' E 030°11'0 0.0
2017-Jun-20 13:30N 59°57' E 030°11'0 0.0
2017-Jun-20 13:00N 59°57' E 030°11'0 0.0
2017-Jun-20 12:30N 59°57' E 030°11'0 0.0
2017-Jun-20 12:00N 59°57' E 030°11'0 0.0
2017-Jun-20 11:30N 59°57' E 030°11'0 0.0
2017-Jun-20 11:00N 59°57' E 030°11'0 0.0
2017-Jun-20 10:30N 59°57' E 030°11'0 0.0
2017-Jun-20 10:00N 59°57' E 030°11'0 0.0
2017-Jun-20 09:30N 59°57' E 030°11'0 0.0
2017-Jun-20 09:00N 59°57' E 030°11'0 0.0
2017-Jun-20 08:30N 59°57' E 030°11'0 0.0
2017-Jun-20 08:00N 59°57' E 030°11'0 0.0
2017-Jun-19 15:46N 59°57' E 030°11'0 0.0
2017-Jun-19 15:10N 59°57' E 030°11'0 0.0
2017-Jun-19 14:46N 59°57' E 030°11'0 0.0
2017-Jun-19 14:28N 59°57' E 030°11'0 0.0
2017-Jun-19 13:25N 59°57' E 030°11'0 0.0
2017-Jun-19 12:04N 59°57' E 030°11'0 0.0
2017-Jun-19 11:58N 59°57' E 030°11'0 0.0
2017-Jun-19 11:25N 59°57' E 030°11'0 0.0
2017-Jun-19 10:49N 59°57' E 030°11'0 0.0
2017-Jun-19 10:13N 59°57' E 030°11'0 0.0
2017-Jun-19 09:49N 59°57' E 030°11'0 0.0
2017-Jun-19 09:25N 59°57' E 030°11'0 0.0
2017-Jun-19 08:55N 59°57' E 030°11'0 0.0
2017-Jun-19 08:25N 59°57' E 030°11'0 0.0
2017-Jun-19 03:31N 59°57' E 030°11'0 2.6
2017-Jun-19 03:30N 59°57' E 030°11'4 8.2
2017-Jun-19 03:00N 59°56' E 030°03'610.7
2017-Jun-19 02:28N 59°57' E 029°52'510.6
2017-Jun-19 02:00N 59°59' E 029°43'612.6
2017-Jun-19 01:31N 60°01' E 029°32'714.2
2017-Jun-19 01:00N 60°02' E 029°17'917.7
2017-Jun-19 00:30N 60°02' E 028°60'917.9
2017-Jun-19 00:00N 60°02' E 028°42'917.8
2017-Jun-18 23:30N 60°04' E 028°24'917.7
2017-Jun-18 23:00N 60°08' E 028°09'917.8
2017-Jun-18 22:31N 60°11' E 027°52'1019.5
2017-Jun-18 22:01N 60°07' E 027°34'1020.6
2017-Jun-18 21:30N 60°02' E 027°16'1019.8
2017-Jun-18 21:01N 59°58' E 026°57'1020.7
2017-Jun-18 20:31N 59°59' E 026°37'1021.0
2017-Jun-18 20:01N 59°56' E 026°17'1021.0
2017-Jun-18 19:31N 59°53' E 025°56'1120.9
2017-Jun-18 19:00N 59°51' E 025°36'1020.2
2017-Jun-18 18:30N 59°52' E 025°16'1019.8
2017-Jun-18 18:00N 59°58' E 024°60'714.1
2017-Jun-18 17:30N 60°04' E 024°53'5 9.2
2017-Jun-18 17:00N 60°09' E 024°55'0 0.5
2017-Jun-18 16:29N 60°09' E 024°55'0 0.0
2017-Jun-18 15:59N 60°09' E 024°55'0 0.0
2017-Jun-18 15:29N 60°09' E 024°55'0 0.0
2017-Jun-18 14:59N 60°09' E 024°55'0 0.0
2017-Jun-18 13:59N 60°09' E 024°55'0 0.0
2017-Jun-18 13:29N 60°09' E 024°55'0 0.0
2017-Jun-18 12:59N 60°09' E 024°55'0 0.0
2017-Jun-18 12:29N 60°09' E 024°55'0 0.0
2017-Jun-18 11:59N 60°09' E 024°55'0 0.0
2017-Jun-18 11:29N 60°09' E 024°55'0 0.0
2017-Jun-18 10:59N 60°09' E 024°55'0 0.0
2017-Jun-18 10:29N 60°09' E 024°55'1 2.8
2017-Jun-18 10:00N 60°08' E 024°54'714.3
2017-Jun-18 09:31N 60°01' E 024°57'714.9
2017-Jun-18 09:00N 59°53' E 024°55'816.9
2017-Jun-18 08:30N 59°47' E 024°45'918.3
2017-Jun-18 08:00N 59°45' E 024°27'918.2
2017-Jun-18 07:30N 59°42' E 024°10'918.2
2017-Jun-18 07:00N 59°39' E 023°53'918.1
2017-Jun-18 06:30N 59°36' E 023°36'918.0
2017-Jun-18 06:00N 59°33' E 023°19'918.3
2017-Jun-18 05:30N 59°30' E 023°02'918.3
2017-Jun-18 05:00N 59°27' E 022°45'918.2
2017-Jun-18 04:30N 59°22' E 022°30'918.4
2017-Jun-18 04:00N 59°17' E 022°15'918.4
2017-Jun-18 03:30N 59°11' E 022°00'918.4
2017-Jun-18 03:00N 59°06' E 021°46'918.0
2017-Jun-18 02:30N 58°59' E 021°35'918.3
2017-Jun-18 02:00N 58°51' E 021°26'917.9
2017-Jun-18 01:30N 58°44' E 021°16'918.0
2017-Jun-18 01:01N 58°36' E 021°08'918.2
2017-Jun-18 00:30N 58°28' E 020°58'918.1
2017-Jun-18 00:00N 58°21' E 020°49'4296.2
2017-Jun-18 00:00N 58°18' E 020°42'510.6 260 / 121018.7 5.4 15.013.314.0
2017-Jun-17 23:31N 58°13' E 020°39'917.9
2017-Jun-17 23:00N 58°06' E 020°29'917.9
2017-Jun-17 22:30N 57°58' E 020°20'2518.0
2017-Jun-17 21:08N 57°38' E 019°53'417.9
2017-Jun-17 20:54N 57°35' E 019°48'10617.6
2017-Jun-17 14:51N 56°22' E 017°27'717.8
2017-Jun-17 14:27N 56°17' E 017°17'1717.8
2017-Jun-17 13:30N 56°07' E 016°53'917.8
2017-Jun-17 13:00N 56°01' E 016°41'917.8
2017-Jun-17 12:30N 55°56' E 016°27'917.7
2017-Jun-17 12:00N 55°52' E 016°14'917.7
2017-Jun-17 11:30N 55°47' E 016°01'918.9
2017-Jun-17 11:00N 55°43' E 015°46'1020.7
2017-Jun-17 10:30N 55°39' E 015°29'1020.5
2017-Jun-17 10:00N 55°35' E 015°12'1020.3
2017-Jun-17 09:30N 55°30' E 014°56'1020.4
2017-Jun-17 09:00N 55°25' E 014°40'1020.3
2017-Jun-17 08:30N 55°17' E 014°29'1020.3
2017-Jun-17 08:00N 55°09' E 014°19'1020.2
2017-Jun-17 07:30N 55°01' E 014°09'1020.9
2017-Jun-17 07:00N 54°56' E 013°52'1120.7
2017-Jun-17 06:29N 54°53' E 013°35'1814.7
2017-Jun-17 05:17N 54°48' E 013°05'519.7
2017-Jun-17 05:00N 54°47' E 012°56'1719.7
2017-Jun-17 04:08N 54°40' E 012°29'719.6
2017-Jun-17 03:47N 54°35' E 012°19'519.8
2017-Jun-17 03:30N 54°30' E 012°16'2618.1
2017-Jun-17 02:04N 54°29' E 011°31'120.8
2017-Jun-17 02:00N 54°29' E 011°29'1021.0
2017-Jun-17 01:30N 54°34' E 011°13'1121.0
2017-Jun-17 01:00N 54°39' E 010°58'918.4
2017-Jun-17 00:30N 54°48' E 010°51'1020.0
2017-Jun-17 00:00N 54°57' E 010°57'1020.6
2017-Jun-16 23:30N 55°07' E 011°02'12218.3
2017-Jun-16 16:52N 57°07' E 011°35'720.4
2017-Jun-16 16:30N 57°14' E 011°31'1020.6
2017-Jun-16 16:00N 57°24' E 011°24'1020.1
2017-Jun-16 15:30N 57°32' E 011°13'1020.6
2017-Jun-16 15:00N 57°39' E 010°59'1020.3
2017-Jun-16 14:30N 57°46' E 010°46'2019.7
2017-Jun-16 13:30N 57°51' E 010°10'1121.1
2017-Jun-16 12:59N 57°49' E 009°50'  
Track history (hours):
 
Tides and Currents Weather Stations Pressure Air Temp Water Temp Dewpoint Dewpoint Depression Visibility Wind Speed Wind Dir Waves Ship Positions

Vision of The Seas

Operator: Royal Caribbean Cruises Ltd

Last reported at 2017-Jun-26 11:58 UTC. Time now 2017-Jun-26 17:17 UTC.
Position N 55°37' E 006°22'.

Type: Passenger vessel. MMSI: 311321000.

Date/timePositionNaut miles runAvg speedWind from/ knotsBaromVisibWave heightAir tempDewpointWater temp
2017-Jun-26 11:58N 55°37' E 006°22'919.8
2017-Jun-26 11:30N 55°45' E 006°30'1019.7
2017-Jun-26 10:59N 55°54' E 006°40'919.8
2017-Jun-26 10:30N 56°02' E 006°49'1019.5
2017-Jun-26 09:59N 56°10' E 006°59'1019.5
2017-Jun-26 09:29N 56°18' E 007°09'1019.6
2017-Jun-26 08:59N 56°27' E 007°17'1019.7
2017-Jun-26 08:29N 56°36' E 007°25'919.4
2017-Jun-26 08:01N 56°44' E 007°32'1019.2
2017-Jun-26 07:30N 56°52' E 007°42'1019.5
2017-Jun-26 07:00N 57°01' E 007°50'1019.6
2017-Jun-26 06:30N 57°09' E 007°59'1019.3
2017-Jun-26 06:00N 57°18' E 008°08'917.7
2017-Jun-26 05:30N 57°23' E 008°21'917.6
2017-Jun-26 05:00N 57°27' E 008°35'917.4
2017-Jun-26 04:29N 57°32' E 008°50'917.1
2017-Jun-26 03:59N 57°36' E 009°03'917.2
2017-Jun-26 03:29N 57°41' E 009°17'917.1
2017-Jun-26 02:59N 57°45' E 009°31'917.2
2017-Jun-26 02:29N 57°48' E 009°46'916.8
2017-Jun-26 01:59N 57°50' E 010°02'816.6
2017-Jun-26 01:30N 57°51' E 010°16'815.7
2017-Jun-26 01:00N 57°51' E 010°31'713.6
2017-Jun-26 00:30N 57°50' E 010°44'713.9
2017-Jun-25 23:59N 57°47' E 010°56'816.0
2017-Jun-25 23:29N 57°41' E 011°06'816.8
2017-Jun-25 23:00N 57°35' E 011°16'816.9
2017-Jun-25 22:31N 57°29' E 011°27'917.4
2017-Jun-25 22:01N 57°21' E 011°32'917.1
2017-Jun-25 21:30N 57°12' E 011°37'916.9
2017-Jun-25 20:59N 57°04' E 011°43'4216.5
2017-Jun-25 18:26N 56°24' E 012°03'716.4
2017-Jun-25 18:00N 56°17' E 012°08'816.5
2017-Jun-25 17:31N 56°13' E 012°20'816.0
2017-Jun-25 17:01N 56°08' E 012°32'815.1
2017-Jun-25 16:31N 56°02' E 012°41'816.1
2017-Jun-25 16:01N 55°54' E 012°45'815.8
2017-Jun-25 15:31N 55°46' E 012°42'611.0
2017-Jun-25 15:00N 55°42' E 012°36'0 0.0
2017-Jun-25 14:30N 55°42' E 012°36'0 0.0
2017-Jun-25 13:30N 55°42' E 012°36'0 0.0
2017-Jun-25 13:00N 55°42' E 012°36'0 0.0
2017-Jun-25 12:30N 55°42' E 012°36'0 0.0
2017-Jun-25 12:00N 55°42' E 012°36'0 0.0
2017-Jun-25 11:30N 55°42' E 012°36'0 0.0
2017-Jun-25 11:00N 55°42' E 012°36'0 0.0
2017-Jun-25 10:30N 55°42' E 012°36'0 0.0
2017-Jun-25 10:00N 55°42' E 012°36'0 0.0
2017-Jun-25 09:27N 55°42' E 012°36'0 0.0
2017-Jun-25 09:00N 55°42' E 012°36'0 0.0
2017-Jun-25 08:30N 55°42' E 012°36'0 0.0
2017-Jun-25 08:00N 55°42' E 012°36'0 0.0
2017-Jun-25 07:30N 55°42' E 012°36'0 0.0
2017-Jun-25 07:00N 55°42' E 012°36'0 0.0
2017-Jun-25 06:30N 55°42' E 012°36'0 0.0
2017-Jun-25 06:00N 55°42' E 012°36'0 0.0
2017-Jun-25 05:30N 55°42' E 012°36'0 0.2
2017-Jun-25 05:00N 55°42' E 012°36'2 3.3
2017-Jun-25 04:30N 55°43' E 012°38'5 9.1
2017-Jun-25 04:00N 55°47' E 012°43'4 8.9
2017-Jun-25 03:30N 55°51' E 012°41'4 8.7
2017-Jun-25 03:00N 55°56' E 012°39'4 8.3
2017-Jun-25 02:30N 55°60' E 012°40'510.4
2017-Jun-25 02:00N 56°04' E 012°37'510.9
2017-Jun-25 01:30N 56°08' E 012°29'510.7
2017-Jun-25 01:00N 56°11' E 012°21'510.2
2017-Jun-25 00:30N 56°14' E 012°13'5 9.8
2017-Jun-25 00:00N 56°16' E 012°06'63 8.8
2017-Jun-24 16:50N 56°10' E 010°14'1 0.2
2017-Jun-24 13:58N 56°09' E 010°13'0 0.0
2017-Jun-24 13:17N 56°09' E 010°13'0 0.0
2017-Jun-24 12:58N 56°09' E 010°13'0 0.0
2017-Jun-24 12:28N 56°09' E 010°13'0 0.0
2017-Jun-24 11:53N 56°09' E 010°13'0 0.0
2017-Jun-24 10:47N 56°09' E 010°13'0 0.0
2017-Jun-24 10:04N 56°09' E 010°13'0 0.0
2017-Jun-24 09:46N 56°09' E 010°13'0 0.0
2017-Jun-24 09:30N 56°09' E 010°13'0 0.0
2017-Jun-24 08:54N 56°09' E 010°13'0 0.0
2017-Jun-24 08:29N 56°09' E 010°13'0 0.0
2017-Jun-24 08:00N 56°09' E 010°13'0 0.0
2017-Jun-24 07:30N 56°09' E 010°13'0 0.0
2017-Jun-24 07:00N 56°09' E 010°13'1 2.6
2017-Jun-24 06:30N 56°09' E 010°15'816.0
2017-Jun-24 06:00N 56°06' E 010°28'5714.2
2017-Jun-24 01:57N 55°13' E 011°06'817.6
2017-Jun-24 01:30N 55°05' E 011°03'816.9
2017-Jun-24 01:00N 54°57' E 010°58'816.1
2017-Jun-24 00:30N 54°50' E 010°53'815.5
2017-Jun-24 00:00N 54°42' E 010°56'816.5
2017-Jun-23 23:31N 54°38' E 011°08'816.9
2017-Jun-23 23:00N 54°34' E 011°20'917.1
2017-Jun-23 22:31N 54°30' E 011°34'1716.9
2017-Jun-23 21:32N 54°26' E 012°01'017.2
2017-Jun-23 21:30N 54°26' E 012°02'714.9
2017-Jun-23 21:00N 54°31' E 012°12'816.9
2017-Jun-23 20:31N 54°38' E 012°18'3117.0
2017-Jun-23 18:41N 54°53' E 013°06'817.0
2017-Jun-23 18:11N 54°55' E 013°20'316.8
2017-Jun-23 18:00N 54°56' E 013°25'816.8
2017-Jun-23 17:30N 54°58' E 013°39'816.7
2017-Jun-23 17:00N 55°00' E 013°54'817.1
2017-Jun-23 16:30N 55°04' E 014°06'917.8
2017-Jun-23 16:00N 55°11' E 014°16'918.1
2017-Jun-23 15:30N 55°18' E 014°26'918.0
2017-Jun-23 15:00N 55°25' E 014°36'1817.9
2017-Jun-23 14:00N 55°34' E 015°03'918.1
2017-Jun-23 13:30N 55°38' E 015°17'918.0
2017-Jun-23 13:00N 55°42' E 015°32'918.1
2017-Jun-23 12:30N 55°46' E 015°46'918.2
2017-Jun-23 12:00N 55°51' E 015°59'918.2
2017-Jun-23 11:31N 55°56' E 016°13'918.3
2017-Jun-23 11:00N 56°01' E 016°26'918.3
2017-Jun-23 10:30N 56°07' E 016°40'918.2
2017-Jun-23 10:01N 56°12' E 016°53'917.7
2017-Jun-23 09:30N 56°19' E 017°03'918.2
2017-Jun-23 09:00N 56°27' E 017°10'918.2
2017-Jun-23 08:30N 56°36' E 017°15'917.8
2017-Jun-23 08:00N 56°45' E 017°20'817.6
2017-Jun-23 07:31N 56°53' E 017°22'917.4
2017-Jun-23 07:00N 57°01' E 017°29'917.8
2017-Jun-23 06:30N 57°10' E 017°33'917.9
2017-Jun-23 06:00N 57°18' E 017°36'917.8
2017-Jun-23 05:30N 57°27' E 017°40'918.1
2017-Jun-23 05:00N 57°35' E 017°47'1518.3
2017-Jun-23 04:10N 57°49' E 018°01'418.5
2017-Jun-23 03:58N 57°52' E 018°04'818.5
2017-Jun-23 03:30N 57°60' E 018°11'918.2
2017-Jun-23 03:00N 58°08' E 018°18'2417.9
2017-Jun-23 01:41N 58°29' E 018°39'318.2
2017-Jun-23 01:31N 58°31' E 018°43'1018.1
2017-Jun-23 00:57N 58°39' E 018°56'917.9
2017-Jun-23 00:28N 58°45' E 019°08'818.1
2017-Jun-23 00:00N 58°50' E 019°20'918.1
2017-Jun-22 23:30N 58°57' E 019°32'917.9
2017-Jun-22 23:00N 59°04' E 019°42'917.8
2017-Jun-22 22:30N 59°11' E 019°54'917.3
2017-Jun-22 22:00N 59°18' E 020°02'918.0
2017-Jun-22 21:31N 59°27' E 020°04'917.2
2017-Jun-22 21:00N 59°36' E 020°00'918.4
2017-Jun-22 20:30N 59°42' E 019°48'917.7
2017-Jun-22 20:00N 59°47' E 019°33'816.1
2017-Jun-22 19:30N 59°45' E 019°18'1414.2
2017-Jun-22 18:30N 59°39' E 018°53'612.4
2017-Jun-22 18:00N 59°35' E 018°43'510.8
2017-Jun-22 17:30N 59°32' E 018°34'510.0
2017-Jun-22 17:00N 59°29' E 018°27'5 9.5
2017-Jun-22 16:30N 59°24' E 018°26'3 5.6
2017-Jun-22 16:00N 59°22' E 018°23'510.0
2017-Jun-22 15:30N 59°21' E 018°13'4 8.7
2017-Jun-22 15:00N 59°19' E 018°05'0 0.5
2017-Jun-22 14:28N 59°19' E 018°05'0 0.0
2017-Jun-22 13:28N 59°19' E 018°05'0 0.0
2017-Jun-22 12:58N 59°19' E 018°05'0 0.0
2017-Jun-22 12:28N 59°19' E 018°05'0 0.0
2017-Jun-22 11:58N 59°19' E 018°05'0 0.0
2017-Jun-22 11:28N 59°19' E 018°05'0 0.0
2017-Jun-22 10:58N 59°19' E 018°05'0 0.0
2017-Jun-22 10:28N 59°19' E 018°05'0 0.0
2017-Jun-22 09:58N 59°19' E 018°05'0 0.0
2017-Jun-22 09:28N 59°19' E 018°05'0 0.0
2017-Jun-22 08:58N 59°19' E 018°05'0 0.0
2017-Jun-22 08:25N 59°19' E 018°05'0 0.0
2017-Jun-22 07:58N 59°19' E 018°05'0 0.0
2017-Jun-22 07:28N 59°19' E 018°05'0 0.0
2017-Jun-22 06:58N 59°19' E 018°05'0 0.0
2017-Jun-22 06:28N 59°19' E 018°05'0 0.0
2017-Jun-22 05:58N 59°19' E 018°05'0 0.1
2017-Jun-22 05:30N 59°19' E 018°05'3 6.2
2017-Jun-22 05:00N 59°20' E 018°11'4 8.8
2017-Jun-22 04:30N 59°23' E 018°17'5 9.2
2017-Jun-22 04:01N 59°21' E 018°26'5 9.3
2017-Jun-22 03:31N 59°26' E 018°23'611.1
2017-Jun-22 03:00N 59°31' E 018°29'5 9.7
2017-Jun-22 02:31N 59°33' E 018°37'611.5
2017-Jun-22 02:01N 59°36' E 018°47'611.0
2017-Jun-22 01:30N 59°40' E 018°56'815.2
2017-Jun-22 01:01N 59°44' E 019°08'816.6
2017-Jun-22 00:31N 59°47' E 019°24'815.6
2017-Jun-22 00:00N 59°48' E 019°39'816.7
2017-Jun-21 23:31N 59°44' E 019°52'917.2
2017-Jun-21 23:01N 59°37' E 020°04'816.7
2017-Jun-21 22:31N 59°30' E 020°11'917.5
2017-Jun-21 22:01N 59°25' E 020°25'1020.2
2017-Jun-21 21:31N 59°24' E 020°45'1020.5
2017-Jun-21 21:00N 59°25' E 021°05'1020.0
2017-Jun-21 20:30N 59°25' E 021°25'1020.7
2017-Jun-21 20:01N 59°25' E 021°45'1020.7
2017-Jun-21 19:31N 59°26' E 022°05'1020.6
2017-Jun-21 19:01N 59°28' E 022°25'1020.7
2017-Jun-21 18:30N 59°31' E 022°45'1020.5
2017-Jun-21 18:01N 59°33' E 023°05'1020.2
2017-Jun-21 17:31N 59°32' E 023°25'1020.4
2017-Jun-21 17:01N 59°32' E 023°45'1020.1
2017-Jun-21 16:31N 59°31' E 024°04'1020.1
2017-Jun-21 16:00N 59°30' E 024°24'917.4
2017-Jun-21 15:31N 59°32' E 024°41'510.6
2017-Jun-21 15:01N 59°27' E 024°46'0 0.3
2017-Jun-21 13:59N 59°27' E 024°46'0 0.0
2017-Jun-21 13:29N 59°27' E 024°46'0 0.0
2017-Jun-21 12:59N 59°27' E 024°46'0 0.0
2017-Jun-21 12:29N 59°27' E 024°46'0 0.0
2017-Jun-21 11:59N 59°27' E 024°46'0 0.0
2017-Jun-21 11:29N 59°27' E 024°46'0 0.0
2017-Jun-21 10:56N 59°27' E 024°46'0 0.0
2017-Jun-21 10:29N 59°27' E 024°46'0 0.0
2017-Jun-21 09:59N 59°27' E 024°46'0 0.0
2017-Jun-21 09:29N 59°27' E 024°46'0 0.0
2017-Jun-21 08:59N 59°27' E 024°46'0 0.0
2017-Jun-21 08:29N 59°27' E 024°46'0 0.0
2017-Jun-21 07:59N 59°27' E 024°46'0 0.0
2017-Jun-21 07:29N 59°27' E 024°46'0 0.0
2017-Jun-21 06:59N 59°27' E 024°46'0 0.0
2017-Jun-21 06:29N 59°27' E 024°46'0 0.0
2017-Jun-21 05:59N 59°27' E 024°46'0 0.0
2017-Jun-21 05:29N 59°27' E 024°46'0 0.1
2017-Jun-21 04:59N 59°27' E 024°46'0 0.1
2017-Jun-21 04:31N 59°27' E 024°46'815.4
2017-Jun-21 04:01N 59°34' E 024°41'918.1
2017-Jun-21 03:30N 59°43' E 024°40'1020.7
2017-Jun-21 03:00N 59°50' E 024°56'1121.2
2017-Jun-21 02:31N 59°52' E 025°16'1121.3
2017-Jun-21 02:01N 59°53' E 025°38'1121.4
2017-Jun-21 01:31N 59°56' E 025°58'1121.5
2017-Jun-21 01:01N 59°59' E 026°19'1121.4
2017-Jun-21 00:31N 60°01' E 026°40'1121.8
2017-Jun-21 00:00N 59°60' E 027°01'1121.7
2017-Jun-20 23:31N 60°05' E 027°20'1121.9
2017-Jun-20 23:01N 60°11' E 027°39'1121.1
2017-Jun-20 22:30N 60°10' E 028°00'1121.4
2017-Jun-20 22:01N 60°06' E 028°20'1121.1
2017-Jun-20 21:31N 60°03' E 028°40'1121.7
2017-Jun-20 21:01N 60°03' E 029°02'1020.6
2017-Jun-20 20:31N 60°02' E 029°22'713.2
2017-Jun-20 19:57N 60°00' E 029°37'510.9
2017-Jun-20 19:30N 59°59' E 029°46'611.5
2017-Jun-20 19:01N 59°56' E 029°56'5 9.8
2017-Jun-20 18:31N 59°57' E 030°06'3 5.6
2017-Jun-20 18:01N 59°57' E 030°11'0 0.3
2017-Jun-20 17:31N 59°57' E 030°11'0 0.0
2017-Jun-20 17:01N 59°57' E 030°11'0 0.0
2017-Jun-20 16:31N 59°57' E 030°11'0 0.0
2017-Jun-20 16:00N 59°57' E 030°11'0 0.0
2017-Jun-20 15:30N 59°57' E 030°11'0 0.0
2017-Jun-20 15:00N 59°57' E 030°11'0 0.0
2017-Jun-20 14:00N 59°57' E 030°11'0 0.0
2017-Jun-20 13:30N 59°57' E 030°11'0 0.0
2017-Jun-20 13:00N 59°57' E 030°11'0 0.0
2017-Jun-20 12:30N 59°57' E 030°11'0 0.0
2017-Jun-20 12:00N 59°57' E 030°11'0 0.0
2017-Jun-20 11:30N 59°57' E 030°11'0 0.0
2017-Jun-20 11:00N 59°57' E 030°11'0 0.0
2017-Jun-20 10:30N 59°57' E 030°11'0 0.0
2017-Jun-20 10:00N 59°57' E 030°11'0 0.0
2017-Jun-20 09:30N 59°57' E 030°11'0 0.0
2017-Jun-20 09:00N 59°57' E 030°11'0 0.0
2017-Jun-20 08:30N 59°57' E 030°11'0 0.0
2017-Jun-20 08:00N 59°57' E 030°11'0 0.0
2017-Jun-19 15:46N 59°57' E 030°11'0 0.0
2017-Jun-19 15:10N 59°57' E 030°11'0 0.0
2017-Jun-19 14:46N 59°57' E 030°11'0 0.0
2017-Jun-19 14:28N 59°57' E 030°11'0 0.0
2017-Jun-19 13:25N 59°57' E 030°11'0 0.0
2017-Jun-19 12:04N 59°57' E 030°11'0 0.0
2017-Jun-19 11:58N 59°57' E 030°11'0 0.0
2017-Jun-19 11:25N 59°57' E 030°11'0 0.0
2017-Jun-19 10:49N 59°57' E 030°11'0 0.0
2017-Jun-19 10:13N 59°57' E 030°11'0 0.0
2017-Jun-19 09:49N 59°57' E 030°11'0 0.0
2017-Jun-19 09:25N 59°57' E 030°11'0 0.0
2017-Jun-19 08:55N 59°57' E 030°11'0 0.0
2017-Jun-19 08:25N 59°57' E 030°11'0 0.0
2017-Jun-19 03:31N 59°57' E 030°11'0 2.6
2017-Jun-19 03:30N 59°57' E 030°11'4 8.2
2017-Jun-19 03:00N 59°56' E 030°03'610.7
2017-Jun-19 02:28N 59°57' E 029°52'510.6
2017-Jun-19 02:00N 59°59' E 029°43'612.6
2017-Jun-19 01:31N 60°01' E 029°32'714.2
2017-Jun-19 01:00N 60°02' E 029°17'917.7
2017-Jun-19 00:30N 60°02' E 028°60'917.9
2017-Jun-19 00:00N 60°02' E 028°42'917.8
2017-Jun-18 23:30N 60°04' E 028°24'917.7
2017-Jun-18 23:00N 60°08' E 028°09'917.8
2017-Jun-18 22:31N 60°11' E 027°52'1019.5
2017-Jun-18 22:01N 60°07' E 027°34'1020.6
2017-Jun-18 21:30N 60°02' E 027°16'1019.8
2017-Jun-18 21:01N 59°58' E 026°57'1020.7
2017-Jun-18 20:31N 59°59' E 026°37'1021.0
2017-Jun-18 20:01N 59°56' E 026°17'1021.0
2017-Jun-18 19:31N 59°53' E 025°56'1120.9
2017-Jun-18 19:00N 59°51' E 025°36'1020.2
2017-Jun-18 18:30N 59°52' E 025°16'1019.8
2017-Jun-18 18:00N 59°58' E 024°60'714.1
2017-Jun-18 17:30N 60°04' E 024°53'5 9.2
2017-Jun-18 17:00N 60°09' E 024°55'0 0.5
2017-Jun-18 16:29N 60°09' E 024°55'0 0.0
2017-Jun-18 15:59N 60°09' E 024°55'0 0.0
2017-Jun-18 15:29N 60°09' E 024°55'0 0.0
2017-Jun-18 14:59N 60°09' E 024°55'0 0.0
2017-Jun-18 13:59N 60°09' E 024°55'0 0.0
2017-Jun-18 13:29N 60°09' E 024°55'0 0.0
2017-Jun-18 12:59N 60°09' E 024°55'0 0.0
2017-Jun-18 12:29N 60°09' E 024°55'0 0.0
2017-Jun-18 11:59N 60°09' E 024°55'0 0.0
2017-Jun-18 11:29N 60°09' E 024°55'0 0.0
2017-Jun-18 10:59N 60°09' E 024°55'0 0.0
2017-Jun-18 10:29N 60°09' E 024°55'1 2.8
2017-Jun-18 10:00N 60°08' E 024°54'714.3
2017-Jun-18 09:31N 60°01' E 024°57'714.9
2017-Jun-18 09:00N 59°53' E 024°55'816.9
2017-Jun-18 08:30N 59°47' E 024°45'918.3
2017-Jun-18 08:00N 59°45' E 024°27'918.2
2017-Jun-18 07:30N 59°42' E 024°10'918.2
2017-Jun-18 07:00N 59°39' E 023°53'918.1
2017-Jun-18 06:30N 59°36' E 023°36'918.0
2017-Jun-18 06:00N 59°33' E 023°19'918.3
2017-Jun-18 05:30N 59°30' E 023°02'918.3
2017-Jun-18 05:00N 59°27' E 022°45'918.2
2017-Jun-18 04:30N 59°22' E 022°30'918.4
2017-Jun-18 04:00N 59°17' E 022°15'918.4
2017-Jun-18 03:30N 59°11' E 022°00'918.4
2017-Jun-18 03:00N 59°06' E 021°46'918.0
2017-Jun-18 02:30N 58°59' E 021°35'918.3
2017-Jun-18 02:00N 58°51' E 021°26'917.9
2017-Jun-18 01:30N 58°44' E 021°16'918.0
2017-Jun-18 01:01N 58°36' E 021°08'918.2
2017-Jun-18 00:30N 58°28' E 020°58'918.1
2017-Jun-18 00:00N 58°21' E 020°49'4296.2
2017-Jun-18 00:00N 58°18' E 020°42'510.6 260 / 121018.7 5.4 15.013.314.0
2017-Jun-17 23:31N 58°13' E 020°39'917.9
2017-Jun-17 23:00N 58°06' E 020°29'917.9
2017-Jun-17 22:30N 57°58' E 020°20'2518.0
2017-Jun-17 21:08N 57°38' E 019°53'417.9
2017-Jun-17 20:54N 57°35' E 019°48'10617.6
2017-Jun-17 14:51N 56°22' E 017°27'717.8
2017-Jun-17 14:27N 56°17' E 017°17'1717.8
2017-Jun-17 13:30N 56°07' E 016°53'917.8
2017-Jun-17 13:00N 56°01' E 016°41'917.8
2017-Jun-17 12:30N 55°56' E 016°27'917.7
2017-Jun-17 12:00N 55°52' E 016°14'917.7
2017-Jun-17 11:30N 55°47' E 016°01'918.9
2017-Jun-17 11:00N 55°43' E 015°46'1020.7
2017-Jun-17 10:30N 55°39' E 015°29'1020.5
2017-Jun-17 10:00N 55°35' E 015°12'1020.3
2017-Jun-17 09:30N 55°30' E 014°56'1020.4
2017-Jun-17 09:00N 55°25' E 014°40'1020.3
2017-Jun-17 08:30N 55°17' E 014°29'1020.3
2017-Jun-17 08:00N 55°09' E 014°19'1020.2
2017-Jun-17 07:30N 55°01' E 014°09'1020.9
2017-Jun-17 07:00N 54°56' E 013°52'1120.7
2017-Jun-17 06:29N 54°53' E 013°35'1814.7
2017-Jun-17 05:17N 54°48' E 013°05'519.7
2017-Jun-17 05:00N 54°47' E 012°56'1719.7
2017-Jun-17 04:08N 54°40' E 012°29'719.6
2017-Jun-17 03:47N 54°35' E 012°19'519.8
2017-Jun-17 03:30N 54°30' E 012°16'2618.1
2017-Jun-17 02:04N 54°29' E 011°31'120.8
2017-Jun-17 02:00N 54°29' E 011°29'1021.0
2017-Jun-17 01:30N 54°34' E 011°13'1121.0
2017-Jun-17 01:00N 54°39' E 010°58'918.4
2017-Jun-17 00:30N 54°48' E 010°51'1020.0
2017-Jun-17 00:00N 54°57' E 010°57'1020.6
2017-Jun-16 23:30N 55°07' E 011°02'12218.3
2017-Jun-16 16:52N 57°07' E 011°35'720.4
2017-Jun-16 16:30N 57°14' E 011°31'1020.6
2017-Jun-16 16:00N 57°24' E 011°24'1020.1
2017-Jun-16 15:30N 57°32' E 011°13'1020.6
2017-Jun-16 15:00N 57°39' E 010°59'1020.3
2017-Jun-16 14:30N 57°46' E 010°46'2019.7
2017-Jun-16 13:30N 57°51' E 010°10'1121.1
2017-Jun-16 12:59N 57°49' E 009°50'  

Dump ship's entire track history